sensor_id;sensor_type;location;lat;lon;timestamp;pressure;altitude;pressure_sealevel;temperature;humidity
15405;BME280;7801;48.124;11.590;2023-07-22T00:02:24;95443.41;;;18.73;80.32
15405;BME280;7801;48.124;11.590;2023-07-22T00:04:50;95446.19;;;18.76;81.07
15405;BME280;7801;48.124;11.590;2023-07-22T00:07:16;95442.69;;;18.60;81.99
15405;BME280;7801;48.124;11.590;2023-07-22T00:09:42;95446.94;;;18.49;82.17
15405;BME280;7801;48.124;11.590;2023-07-22T00:12:08;95452.91;;;18.30;83.60
15405;BME280;7801;48.124;11.590;2023-07-22T00:14:35;95450.16;;;18.67;82.40
15405;BME280;7801;48.124;11.590;2023-07-22T00:17:01;95444.53;;;18.72;82.62
15405;BME280;7801;48.124;11.590;2023-07-22T00:19:26;95436.28;;;18.52;83.14
15405;BME280;7801;48.124;11.590;2023-07-22T00:21:51;95444.84;;;18.42;84.23
15405;BME280;7801;48.124;11.590;2023-07-22T00:24:17;95452.09;;;18.42;84.31
15405;BME280;7801;48.124;11.590;2023-07-22T00:26:43;95444.72;;;18.39;84.40
15405;BME280;7801;48.124;11.590;2023-07-22T00:29:08;95447.19;;;18.44;83.75
15405;BME280;7801;48.124;11.590;2023-07-22T00:31:34;95447.97;;;18.32;84.46
15405;BME280;7801;48.124;11.590;2023-07-22T00:33:59;95440.41;;;18.22;85.27
15405;BME280;7801;48.124;11.590;2023-07-22T00:36:25;95448.56;;;18.26;84.60
15405;BME280;7801;48.124;11.590;2023-07-22T00:38:50;95439.56;;;18.34;84.63
15405;BME280;7801;48.124;11.590;2023-07-22T00:41:18;95439.47;;;18.30;84.57
15405;BME280;7801;48.124;11.590;2023-07-22T00:43:43;95432.06;;;18.39;85.03
15405;BME280;7801;48.124;11.590;2023-07-22T00:46:08;95436.66;;;18.39;84.32
15405;BME280;7801;48.124;11.590;2023-07-22T00:48:33;95425.34;;;18.45;83.90
15405;BME280;7801;48.124;11.590;2023-07-22T00:50:59;95423.56;;;18.37;83.92
15405;BME280;7801;48.124;11.590;2023-07-22T00:53:24;95424.41;;;18.53;83.54
15405;BME280;7801;48.124;11.590;2023-07-22T00:55:50;95419.47;;;18.55;83.57
15405;BME280;7801;48.124;11.590;2023-07-22T00:58:16;95425.97;;;18.54;83.83
15405;BME280;7801;48.124;11.590;2023-07-22T01:00:41;95420.22;;;18.40;83.17
15405;BME280;7801;48.124;11.590;2023-07-22T01:03:07;95412.78;;;18.62;83.12
15405;BME280;7801;48.124;11.590;2023-07-22T01:05:34;95420.66;;;18.42;83.67
15405;BME280;7801;48.124;11.590;2023-07-22T01:08:00;95416.78;;;18.68;83.57
15405;BME280;7801;48.124;11.590;2023-07-22T01:10:25;95406.97;;;18.87;82.46
15405;BME280;7801;48.124;11.590;2023-07-22T01:12:51;95402.81;;;18.50;82.76
15405;BME280;7801;48.124;11.590;2023-07-22T01:15:16;95399.00;;;18.51;82.84
15405;BME280;7801;48.124;11.590;2023-07-22T01:17:41;95402.12;;;18.53;82.95
15405;BME280;7801;48.124;11.590;2023-07-22T01:20:07;95403.19;;;18.48;82.80
15405;BME280;7801;48.124;11.590;2023-07-22T01:22:34;95400.94;;;18.38;83.05
15405;BME280;7801;48.124;11.590;2023-07-22T01:25:01;95398.81;;;18.04;85.23
15405;BME280;7801;48.124;11.590;2023-07-22T01:27:26;95403.06;;;17.93;85.42
15405;BME280;7801;48.124;11.590;2023-07-22T01:29:52;95406.38;;;18.14;84.84
15405;BME280;7801;48.124;11.590;2023-07-22T01:32:17;95412.09;;;18.12;84.86
15405;BME280;7801;48.124;11.590;2023-07-22T01:34:43;95415.09;;;18.23;84.55
15405;BME280;7801;48.124;11.590;2023-07-22T01:37:08;95415.81;;;18.08;85.14
15405;BME280;7801;48.124;11.590;2023-07-22T01:39:35;95421.59;;;18.22;84.75
15405;BME280;7801;48.124;11.590;2023-07-22T01:42:01;95411.41;;;18.28;85.07
15405;BME280;7801;48.124;11.590;2023-07-22T01:44:26;95418.41;;;18.32;85.22
15405;BME280;7801;48.124;11.590;2023-07-22T01:46:51;95408.72;;;18.28;85.16
15405;BME280;7801;48.124;11.590;2023-07-22T01:49:19;95415.28;;;18.42;85.16
15405;BME280;7801;48.124;11.590;2023-07-22T01:51:44;95416.06;;;18.43;84.77
15405;BME280;7801;48.124;11.590;2023-07-22T01:54:11;95421.53;;;18.46;85.34
15405;BME280;7801;48.124;11.590;2023-07-22T01:56:38;95420.91;;;18.25;85.33
15405;BME280;7801;48.124;11.590;2023-07-22T01:59:03;95417.25;;;18.17;85.89
15405;BME280;7801;48.124;11.590;2023-07-22T02:01:29;95417.69;;;18.19;86.42
15405;BME280;7801;48.124;11.590;2023-07-22T02:03:54;95419.63;;;18.07;86.10
15405;BME280;7801;48.124;11.590;2023-07-22T02:06:20;95419.81;;;18.26;85.51
15405;BME280;7801;48.124;11.590;2023-07-22T02:08:46;95412.37;;;18.35;85.66
15405;BME280;7801;48.124;11.590;2023-07-22T02:11:11;95416.19;;;18.34;85.59
15405;BME280;7801;48.124;11.590;2023-07-22T02:13:37;95419.87;;;18.30;85.41
15405;BME280;7801;48.124;11.590;2023-07-22T02:16:02;95429.16;;;18.44;85.08
15405;BME280;7801;48.124;11.590;2023-07-22T02:18:28;95422.22;;;18.31;85.37
15405;BME280;7801;48.124;11.590;2023-07-22T02:20:54;95432.84;;;18.40;85.30
15405;BME280;7801;48.124;11.590;2023-07-22T02:23:21;95429.44;;;18.55;84.94
15405;BME280;7801;48.124;11.590;2023-07-22T02:25:53;95427.94;;;18.42;84.81
15405;BME280;7801;48.124;11.590;2023-07-22T02:28:19;95430.03;;;18.61;84.49
15405;BME280;7801;48.124;11.590;2023-07-22T02:30:47;95426.69;;;18.39;83.90
15405;BME280;7801;48.124;11.590;2023-07-22T02:33:13;95429.63;;;18.34;84.86
15405;BME280;7801;48.124;11.590;2023-07-22T02:35:38;95422.66;;;18.45;84.28
15405;BME280;7801;48.124;11.590;2023-07-22T02:38:04;95421.03;;;18.29;84.86
15405;BME280;7801;48.124;11.590;2023-07-22T02:40:29;95422.22;;;18.31;85.05
15405;BME280;7801;48.124;11.590;2023-07-22T02:42:54;95429.63;;;18.34;84.50
15405;BME280;7801;48.124;11.590;2023-07-22T02:45:19;95434.56;;;18.20;85.08
15405;BME280;7801;48.124;11.590;2023-07-22T02:47:45;95426.59;;;18.36;85.03
15405;BME280;7801;48.124;11.590;2023-07-22T02:50:10;95435.72;;;18.59;85.00
15405;BME280;7801;48.124;11.590;2023-07-22T02:52:36;95435.84;;;18.63;84.01
15405;BME280;7801;48.124;11.590;2023-07-22T02:55:11;95438.44;;;18.47;84.10
15405;BME280;7801;48.124;11.590;2023-07-22T02:57:38;95437.22;;;18.44;84.47
15405;BME280;7801;48.124;11.590;2023-07-22T03:00:04;95437.28;;;18.08;85.35
15405;BME280;7801;48.124;11.590;2023-07-22T03:02:32;95435.78;;;18.35;84.69
15405;BME280;7801;48.124;11.590;2023-07-22T03:04:58;95442.22;;;18.06;85.45
15405;BME280;7801;48.124;11.590;2023-07-22T03:07:23;95434.81;;;17.91;86.37
15405;BME280;7801;48.124;11.590;2023-07-22T03:09:51;95438.38;;;18.19;85.71
15405;BME280;7801;48.124;11.590;2023-07-22T03:12:17;95436.84;;;18.06;86.08
15405;BME280;7801;48.124;11.590;2023-07-22T03:14:42;95446.47;;;17.95;86.53
15405;BME280;7801;48.124;11.590;2023-07-22T03:17:07;95440.22;;;17.78;87.28
15405;BME280;7801;48.124;11.590;2023-07-22T03:19:33;95442.34;;;17.85;86.67
15405;BME280;7801;48.124;11.590;2023-07-22T03:21:58;95439.53;;;17.81;86.87
15405;BME280;7801;48.124;11.590;2023-07-22T03:24:23;95427.41;;;18.12;86.26
15405;BME280;7801;48.124;11.590;2023-07-22T03:26:50;95439.97;;;18.08;85.56
15405;BME280;7801;48.124;11.590;2023-07-22T03:29:15;95442.19;;;18.18;85.55
15405;BME280;7801;48.124;11.590;2023-07-22T03:31:41;95446.22;;;18.24;85.06
15405;BME280;7801;48.124;11.590;2023-07-22T03:34:06;95438.31;;;18.03;85.91
15405;BME280;7801;48.124;11.590;2023-07-22T03:36:31;95437.03;;;18.13;86.06
15405;BME280;7801;48.124;11.590;2023-07-22T03:39:00;95436.50;;;18.07;85.81
15405;BME280;7801;48.124;11.590;2023-07-22T03:41:25;95441.75;;;18.16;85.34
15405;BME280;7801;48.124;11.590;2023-07-22T03:43:51;95428.19;;;18.12;86.04
15405;BME280;7801;48.124;11.590;2023-07-22T03:46:16;95436.66;;;18.39;85.34
15405;BME280;7801;48.124;11.590;2023-07-22T03:48:41;95453.59;;;18.27;85.68
15405;BME280;7801;48.124;11.590;2023-07-22T03:51:06;95442.25;;;18.34;85.37
15405;BME280;7801;48.124;11.590;2023-07-22T03:53:32;95444.75;;;18.14;85.41
15405;BME280;7801;48.124;11.590;2023-07-22T03:55:57;95445.00;;;17.97;86.42
15405;BME280;7801;48.124;11.590;2023-07-22T03:58:22;95445.81;;;17.85;87.15
15405;BME280;7801;48.124;11.590;2023-07-22T04:00:48;95449.16;;;17.95;86.77
15405;BME280;7801;48.124;11.590;2023-07-22T04:03:14;95449.94;;;17.83;87.53
15405;BME280;7801;48.124;11.590;2023-07-22T04:05:39;95455.75;;;17.85;87.39
15405;BME280;7801;48.124;11.590;2023-07-22T04:08:04;95452.19;;;17.81;87.45
15405;BME280;7801;48.124;11.590;2023-07-22T04:10:30;95460.34;;;17.84;88.12
15405;BME280;7801;48.124;11.590;2023-07-22T04:12:55;95458.44;;;17.97;87.15
15405;BME280;7801;48.124;11.590;2023-07-22T04:15:21;95454.75;;;18.02;87.26
15405;BME280;7801;48.124;11.590;2023-07-22T04:17:46;95460.13;;;18.02;86.95
15405;BME280;7801;48.124;11.590;2023-07-22T04:20:12;95464.69;;;17.89;87.54
15405;BME280;7801;48.124;11.590;2023-07-22T04:22:37;95469.94;;;18.22;86.99
15405;BME280;7801;48.124;11.590;2023-07-22T04:25:03;95465.78;;;18.12;86.34
15405;BME280;7801;48.124;11.590;2023-07-22T04:27:29;95476.78;;;17.95;86.83
15405;BME280;7801;48.124;11.590;2023-07-22T04:29:54;95481.25;;;17.91;87.62
15405;BME280;7801;48.124;11.590;2023-07-22T04:32:19;95469.38;;;17.92;88.07
15405;BME280;7801;48.124;11.590;2023-07-22T04:34:45;95473.41;;;17.98;87.72
15405;BME280;7801;48.124;11.590;2023-07-22T04:37:10;95479.22;;;18.12;87.18
15405;BME280;7801;48.124;11.590;2023-07-22T04:39:36;95467.94;;;17.95;87.87
15405;BME280;7801;48.124;11.590;2023-07-22T04:42:02;95464.69;;;18.01;87.94
15405;BME280;7801;48.124;11.590;2023-07-22T04:44:27;95466.84;;;18.08;86.68
15405;BME280;7801;48.124;11.590;2023-07-22T04:46:53;95452.03;;;18.14;86.32
15405;BME280;7801;48.124;11.590;2023-07-22T04:49:18;95462.31;;;18.12;86.54
15405;BME280;7801;48.124;11.590;2023-07-22T04:51:47;95456.09;;;17.96;88.00
15405;BME280;7801;48.124;11.590;2023-07-22T04:54:13;95463.44;;;18.11;87.48
15405;BME280;7801;48.124;11.590;2023-07-22T04:56:38;95466.44;;;18.34;86.71
15405;BME280;7801;48.124;11.590;2023-07-22T04:59:04;95466.91;;;18.24;86.51
15405;BME280;7801;48.124;11.590;2023-07-22T05:01:29;95471.03;;;18.45;86.08
15405;BME280;7801;48.124;11.590;2023-07-22T05:03:55;95476.84;;;18.35;86.60
15405;BME280;7801;48.124;11.590;2023-07-22T05:06:21;95472.91;;;18.45;86.52
15405;BME280;7801;48.124;11.590;2023-07-22T05:08:46;95476.63;;;18.40;86.17
15405;BME280;7801;48.124;11.590;2023-07-22T05:11:11;95463.84;;;18.49;86.30
15405;BME280;7801;48.124;11.590;2023-07-22T05:13:37;95469.47;;;18.32;86.40
15405;BME280;7801;48.124;11.590;2023-07-22T05:16:02;95472.47;;;18.43;86.49
15405;BME280;7801;48.124;11.590;2023-07-22T05:18:28;95470.25;;;18.45;85.57
15405;BME280;7801;48.124;11.590;2023-07-22T05:20:53;95473.03;;;18.61;85.13
15405;BME280;7801;48.124;11.590;2023-07-22T05:23:18;95474.09;;;18.72;84.87
15405;BME280;7801;48.124;11.590;2023-07-22T05:25:44;95492.03;;;18.96;84.13
15405;BME280;7801;48.124;11.590;2023-07-22T05:28:09;95480.72;;;19.02;83.44
15405;BME280;7801;48.124;11.590;2023-07-22T05:30:34;95485.09;;;18.95;83.08
15405;BME280;7801;48.124;11.590;2023-07-22T05:32:59;95474.75;;;18.81;83.40
15405;BME280;7801;48.124;11.590;2023-07-22T05:35:25;95484.03;;;18.83;83.67
15405;BME280;7801;48.124;11.590;2023-07-22T05:37:50;95480.59;;;18.71;84.29
15405;BME280;7801;48.124;11.590;2023-07-22T05:40:15;95474.16;;;18.87;83.25
15405;BME280;7801;48.124;11.590;2023-07-22T05:42:41;95469.84;;;18.71;83.95
15405;BME280;7801;48.124;11.590;2023-07-22T05:45:07;95475.22;;;18.71;83.53
15405;BME280;7801;48.124;11.590;2023-07-22T05:47:32;95473.19;;;18.80;83.23
15405;BME280;7801;48.124;11.590;2023-07-22T05:49:58;95479.22;;;18.77;83.71
15405;BME280;7801;48.124;11.590;2023-07-22T05:52:23;95478.25;;;18.97;82.13
15405;BME280;7801;48.124;11.590;2023-07-22T05:54:48;95473.53;;;19.06;81.96
15405;BME280;7801;48.124;11.590;2023-07-22T05:57:15;95477.12;;;18.98;81.88
15405;BME280;7801;48.124;11.590;2023-07-22T05:59:40;95484.41;;;18.98;81.35
15405;BME280;7801;48.124;11.590;2023-07-22T06:02:07;95483.88;;;18.92;81.92
15405;BME280;7801;48.124;11.590;2023-07-22T06:04:33;95482.34;;;18.91;80.82
15405;BME280;7801;48.124;11.590;2023-07-22T06:06:58;95490.34;;;19.03;79.75
15405;BME280;7801;48.124;11.590;2023-07-22T06:09:23;95485.00;;;19.19;80.40
15405;BME280;7801;48.124;11.590;2023-07-22T06:11:49;95489.28;;;19.36;78.87
15405;BME280;7801;48.124;11.590;2023-07-22T06:14:14;95484.81;;;19.55;78.04
15405;BME280;7801;48.124;11.590;2023-07-22T06:16:39;95494.38;;;19.53;76.18
15405;BME280;7801;48.124;11.590;2023-07-22T06:19:05;95499.00;;;19.52;76.30
15405;BME280;7801;48.124;11.590;2023-07-22T06:21:30;95507.13;;;19.56;76.45
15405;BME280;7801;48.124;11.590;2023-07-22T06:23:55;95508.44;;;19.62;76.64
15405;BME280;7801;48.124;11.590;2023-07-22T06:26:21;95507.75;;;19.65;75.78
15405;BME280;7801;48.124;11.590;2023-07-22T06:28:47;95505.06;;;19.81;75.93
15405;BME280;7801;48.124;11.590;2023-07-22T06:31:12;95501.94;;;19.79;74.69
15405;BME280;7801;48.124;11.590;2023-07-22T06:33:37;95513.00;;;19.89;74.33
15405;BME280;7801;48.124;11.590;2023-07-22T06:36:03;95507.25;;;20.07;75.02
15405;BME280;7801;48.124;11.590;2023-07-22T06:38:28;95510.28;;;19.89;75.03
15405;BME280;7801;48.124;11.590;2023-07-22T06:40:54;95517.34;;;19.94;75.85
15405;BME280;7801;48.124;11.590;2023-07-22T06:43:19;95514.19;;;19.76;75.60
15405;BME280;7801;48.124;11.590;2023-07-22T06:45:44;95512.56;;;19.72;74.46
15405;BME280;7801;48.124;11.590;2023-07-22T06:48:10;95512.03;;;19.82;73.16
15405;BME280;7801;48.124;11.590;2023-07-22T06:50:35;95511.50;;;19.76;73.94
15405;BME280;7801;48.124;11.590;2023-07-22T06:53:00;95509.66;;;19.96;75.38
15405;BME280;7801;48.124;11.590;2023-07-22T06:55:26;95520.72;;;19.91;72.27
15405;BME280;7801;48.124;11.590;2023-07-22T06:57:51;95513.69;;;19.86;73.56
15405;BME280;7801;48.124;11.590;2023-07-22T07:00:16;95517.50;;;19.85;71.82
15405;BME280;7801;48.124;11.590;2023-07-22T07:02:42;95514.00;;;20.01;71.78
15405;BME280;7801;48.124;11.590;2023-07-22T07:05:07;95515.56;;;20.02;71.04
15405;BME280;7801;48.124;11.590;2023-07-22T07:07:33;95521.56;;;19.79;70.25
15405;BME280;7801;48.124;11.590;2023-07-22T07:09:58;95512.22;;;19.73;67.38
15405;BME280;7801;48.124;11.590;2023-07-22T07:12:26;95519.56;;;19.76;68.90
15405;BME280;7801;48.124;11.590;2023-07-22T07:14:53;95522.00;;;19.81;69.74
15405;BME280;7801;48.124;11.590;2023-07-22T07:17:18;95521.56;;;19.79;69.96
15405;BME280;7801;48.124;11.590;2023-07-22T07:19:44;95524.63;;;19.94;70.77
15405;BME280;7801;48.124;11.590;2023-07-22T07:22:10;95527.59;;;19.88;69.17
15405;BME280;7801;48.124;11.590;2023-07-22T07:24:35;95522.34;;;19.96;67.75
15405;BME280;7801;48.124;11.590;2023-07-22T07:30:23;95528.06;;;20.25;72.23
15405;BME280;7801;48.124;11.590;2023-07-22T07:32:49;95525.19;;;20.85;68.53
15405;BME280;7801;48.124;11.590;2023-07-22T07:35:14;95523.97;;;21.02;67.88
15405;BME280;7801;48.124;11.590;2023-07-22T07:37:39;95525.91;;;21.20;66.04
15405;BME280;7801;48.124;11.590;2023-07-22T07:40:05;95531.62;;;21.35;65.56
15405;BME280;7801;48.124;11.590;2023-07-22T07:42:31;95528.25;;;21.22;64.82
15405;BME280;7801;48.124;11.590;2023-07-22T07:44:56;95533.56;;;20.99;66.06
15405;BME280;7801;48.124;11.590;2023-07-22T07:47:22;95540.22;;;21.40;65.49
15405;BME280;7801;48.124;11.590;2023-07-22T07:49:47;95534.81;;;21.40;64.83
15405;BME280;7801;48.124;11.590;2023-07-22T07:52:12;95523.56;;;21.19;62.42
15405;BME280;7801;48.124;11.590;2023-07-22T07:54:37;95531.97;;;20.79;63.01
15405;BME280;7801;48.124;11.590;2023-07-22T07:57:03;95532.47;;;20.65;63.34
15405;BME280;7801;48.124;11.590;2023-07-22T07:59:29;95542.41;;;20.45;62.94
15405;BME280;7801;48.124;11.590;2023-07-22T08:01:54;95542.34;;;20.26;64.79
15405;BME280;7801;48.124;11.590;2023-07-22T08:04:19;95536.94;;;20.26;64.23
15405;BME280;7801;48.124;11.590;2023-07-22T08:06:44;95536.53;;;19.93;63.74
15405;BME280;7801;48.124;11.590;2023-07-22T08:09:10;95534.97;;;20.07;66.14
15405;BME280;7801;48.124;11.590;2023-07-22T08:11:37;95543.13;;;20.11;65.70
15405;BME280;7801;48.124;11.590;2023-07-22T08:14:03;95529.03;;;20.17;65.78
15405;BME280;7801;48.124;11.590;2023-07-22T08:16:30;95532.72;;;20.09;64.48
15405;BME280;7801;48.124;11.590;2023-07-22T08:18:55;95533.38;;;20.22;65.56
15405;BME280;7801;48.124;11.590;2023-07-22T08:21:20;95534.06;;;20.35;64.53
15405;BME280;7801;48.124;11.590;2023-07-22T08:23:46;95536.50;;;20.55;66.43
15405;BME280;7801;48.124;11.590;2023-07-22T08:26:12;95534.34;;;20.45;63.49
15405;BME280;7801;48.124;11.590;2023-07-22T08:28:38;95537.84;;;20.65;66.78
15405;BME280;7801;48.124;11.590;2023-07-22T08:31:03;95535.66;;;20.71;66.31
15405;BME280;7801;48.124;11.590;2023-07-22T08:33:29;95539.91;;;20.52;64.03
15405;BME280;7801;48.124;11.590;2023-07-22T08:35:55;95539.63;;;20.42;64.20
15405;BME280;7801;48.124;11.590;2023-07-22T08:38:20;95534.87;;;20.70;67.95
15405;BME280;7801;48.124;11.590;2023-07-22T08:40:49;95538.22;;;20.83;70.20
15405;BME280;7801;48.124;11.590;2023-07-22T08:43:20;95530.91;;;20.83;64.15
15405;BME280;7801;48.124;11.590;2023-07-22T08:45:47;95536.56;;;20.59;66.01
15405;BME280;7801;48.124;11.590;2023-07-22T08:48:15;95532.56;;;21.07;70.70
15405;BME280;7801;48.124;11.590;2023-07-22T08:50:45;95543.13;;;21.32;68.98
15405;BME280;7801;48.124;11.590;2023-07-22T08:53:14;95531.88;;;21.30;66.60
15405;BME280;7801;48.124;11.590;2023-07-22T08:55:41;95529.34;;;21.37;64.06
15405;BME280;7801;48.124;11.590;2023-07-22T08:58:10;95529.25;;;21.52;63.97
15405;BME280;7801;48.124;11.590;2023-07-22T09:00:36;95534.53;;;21.68;62.69
15405;BME280;7801;48.124;11.590;2023-07-22T09:03:02;95531.53;;;21.73;61.79
15405;BME280;7801;48.124;11.590;2023-07-22T09:05:28;95538.50;;;21.97;60.20
15405;BME280;7801;48.124;11.590;2023-07-22T09:07:55;95533.69;;;21.87;58.05
15405;BME280;7801;48.124;11.590;2023-07-22T09:10:22;95530.78;;;21.95;59.05
15405;BME280;7801;48.124;11.590;2023-07-22T09:12:50;95528.22;;;22.03;58.64
15405;BME280;7801;48.124;11.590;2023-07-22T09:15:16;95528.75;;;22.12;57.66
15405;BME280;7801;48.124;11.590;2023-07-22T09:17:42;95531.25;;;21.78;52.36
15405;BME280;7801;48.124;11.590;2023-07-22T09:20:08;95529.72;;;22.00;57.18
15405;BME280;7801;48.124;11.590;2023-07-22T09:22:33;95513.53;;;22.04;56.47
15405;BME280;7801;48.124;11.590;2023-07-22T09:25:23;95526.34;;;22.07;57.12
15405;BME280;7801;48.124;11.590;2023-07-22T09:27:51;95522.72;;;21.99;56.16
15405;BME280;7801;48.124;11.590;2023-07-22T09:32:58;95523.22;;;22.05;55.33
15405;BME280;7801;48.124;11.590;2023-07-22T09:35:31;95527.44;;;22.02;54.72
15405;BME280;7801;48.124;11.590;2023-07-22T09:37:58;95522.56;;;22.11;55.20
15405;BME280;7801;48.124;11.590;2023-07-22T09:40:25;95509.03;;;22.11;56.04
15405;BME280;7801;48.124;11.590;2023-07-22T09:42:53;95520.19;;;21.87;53.60
15405;BME280;7801;48.124;11.590;2023-07-22T09:45:22;95513.72;;;21.91;53.25
15405;BME280;7801;48.124;11.590;2023-07-22T09:47:49;95511.78;;;21.92;54.66
15405;BME280;7801;48.124;11.590;2023-07-22T09:50:17;95518.47;;;21.98;55.60
15405;BME280;7801;48.124;11.590;2023-07-22T09:52:48;95509.88;;;21.92;55.74
15405;BME280;7801;48.124;11.590;2023-07-22T09:55:15;95505.59;;;21.91;56.37
15405;BME280;7801;48.124;11.590;2023-07-22T09:57:52;95512.28;;;21.98;56.05
15405;BME280;7801;48.124;11.590;2023-07-22T10:00:19;95505.44;;;22.04;55.89
15405;BME280;7801;48.124;11.590;2023-07-22T10:02:47;95501.09;;;21.99;54.89
15405;BME280;7801;48.124;11.590;2023-07-22T10:05:16;95510.59;;;21.89;55.71
15405;BME280;7801;48.124;11.590;2023-07-22T10:07:50;95498.06;;;22.01;54.04
15405;BME280;7801;48.124;11.590;2023-07-22T10:10:19;95508.72;;;21.93;52.76
15405;BME280;7801;48.124;11.590;2023-07-22T10:12:45;95504.06;;;22.13;56.29
15405;BME280;7801;48.124;11.590;2023-07-22T10:15:12;95506.81;;;22.17;54.17
15405;BME280;7801;48.124;11.590;2023-07-22T10:17:39;95503.63;;;22.11;53.48
15405;BME280;7801;48.124;11.590;2023-07-22T10:20:05;95492.22;;;22.21;55.46
15405;BME280;7801;48.124;11.590;2023-07-22T10:22:36;95493.41;;;22.24;55.25
15405;BME280;7801;48.124;11.590;2023-07-22T10:25:06;95497.94;;;22.16;52.29
15405;BME280;7801;48.124;11.590;2023-07-22T10:27:35;95502.91;;;22.14;52.49
15405;BME280;7801;48.124;11.590;2023-07-22T10:30:01;95495.78;;;22.29;54.78
15405;BME280;7801;48.124;11.590;2023-07-22T10:32:35;95493.62;;;22.38;54.28
15405;BME280;7801;48.124;11.590;2023-07-22T10:35:00;95487.81;;;22.36;53.14
15405;BME280;7801;48.124;11.590;2023-07-22T10:37:30;95498.78;;;22.20;50.64
15405;BME280;7801;48.124;11.590;2023-07-22T10:40:26;95492.38;;;22.32;52.11
15405;BME280;7801;48.124;11.590;2023-07-22T10:43:00;95492.25;;;22.25;52.03
15405;BME280;7801;48.124;11.590;2023-07-22T10:45:33;95481.53;;;22.06;52.16
15405;BME280;7801;48.124;11.590;2023-07-22T10:48:10;95484.94;;;22.25;52.36
15405;BME280;7801;48.124;11.590;2023-07-22T10:50:46;95481.25;;;22.11;47.16
15405;BME280;7801;48.124;11.590;2023-07-22T10:53:13;95475.72;;;22.30;52.04
15405;BME280;7801;48.124;11.590;2023-07-22T10:59:00;95481.97;;;22.34;53.43
15405;BME280;7801;48.124;11.590;2023-07-22T11:04:12;95469.28;;;22.38;52.09
15405;BME280;7801;48.124;11.590;2023-07-22T11:12:13;95466.00;;;22.25;47.58
15405;BME280;7801;48.124;11.590;2023-07-22T11:14:46;95444.44;;;22.29;51.18
15405;BME280;7801;48.124;11.590;2023-07-22T11:17:12;95447.56;;;22.31;49.56
15405;BME280;7801;48.124;11.590;2023-07-22T11:19:38;95455.72;;;22.35;50.20
15405;BME280;7801;48.124;11.590;2023-07-22T11:22:04;95442.63;;;22.37;51.92
15405;BME280;7801;48.124;11.590;2023-07-22T11:24:32;95445.44;;;22.44;50.51
15405;BME280;7801;48.124;11.590;2023-07-22T11:26:58;95429.56;;;22.42;49.69
15405;BME280;7801;48.124;11.590;2023-07-22T11:29:23;95439.62;;;22.45;52.02
15405;BME280;7801;48.124;11.590;2023-07-22T11:31:50;95440.88;;;22.51;52.84
15405;BME280;7801;48.124;11.590;2023-07-22T11:34:20;95428.53;;;22.54;52.83
15405;BME280;7801;48.124;11.590;2023-07-22T11:36:47;95428.59;;;22.57;49.40
15405;BME280;7801;48.124;11.590;2023-07-22T11:39:15;95416.59;;;22.55;50.17
15405;BME280;7801;48.124;11.590;2023-07-22T11:41:42;95420.47;;;22.57;51.68
15405;BME280;7801;48.124;11.590;2023-07-22T11:44:09;95415.91;;;22.61;51.09
15405;BME280;7801;48.124;11.590;2023-07-22T11:49:23;95419.03;;;22.67;52.17
15405;BME280;7801;48.124;11.590;2023-07-22T11:51:50;95415.91;;;22.61;51.68
15405;BME280;7801;48.124;11.590;2023-07-22T11:54:15;95409.78;;;22.68;50.71
15405;BME280;7801;48.124;11.590;2023-07-22T11:56:42;95409.72;;;22.61;51.09
15405;BME280;7801;48.124;11.590;2023-07-22T11:59:08;95405.03;;;22.58;48.82
15405;BME280;7801;48.124;11.590;2023-07-22T12:01:34;95401.97;;;22.59;50.03
15405;BME280;7801;48.124;11.590;2023-07-22T12:03:59;95397.69;;;22.58;50.37
15405;BME280;7801;48.124;11.590;2023-07-22T12:06:26;95403.88;;;22.59;48.88
15405;BME280;7801;48.124;11.590;2023-07-22T12:08:52;95399.25;;;22.59;46.89
15405;BME280;7801;48.124;11.590;2023-07-22T12:11:19;95386.88;;;22.58;50.15
15405;BME280;7801;48.124;11.590;2023-07-22T12:13:45;95389.06;;;22.49;49.67
15405;BME280;7801;48.124;11.590;2023-07-22T12:16:12;95392.59;;;22.53;50.23
15405;BME280;7801;48.124;11.590;2023-07-22T12:18:44;95388.75;;;22.54;50.01
15405;BME280;7801;48.124;11.590;2023-07-22T12:21:10;95381.87;;;22.60;49.73
15405;BME280;7801;48.124;11.590;2023-07-22T12:23:36;95383.03;;;22.59;49.71
15405;BME280;7801;48.124;11.590;2023-07-22T12:26:01;95385.53;;;22.45;49.80
15405;BME280;7801;48.124;11.590;2023-07-22T12:28:26;95382.94;;;22.52;49.41
15405;BME280;7801;48.124;11.590;2023-07-22T12:30:52;95378.00;;;22.58;44.01
15405;BME280;7801;48.124;11.590;2023-07-22T12:33:17;95382.16;;;22.52;48.20
15405;BME280;7801;48.124;11.590;2023-07-22T12:35:42;95374.50;;;22.57;44.85
15405;BME280;7801;48.124;11.590;2023-07-22T12:38:08;95366.47;;;22.65;46.18
15405;BME280;7801;48.124;11.590;2023-07-22T12:40:33;95367.03;;;22.77;46.82
15405;BME280;7801;48.124;11.590;2023-07-22T12:42:58;95376.34;;;22.80;49.59
15405;BME280;7801;48.124;11.590;2023-07-22T12:45:24;95364.63;;;22.72;51.58
15405;BME280;7801;48.124;11.590;2023-07-22T12:47:49;95374.66;;;22.72;50.54
15405;BME280;7801;48.124;11.590;2023-07-22T12:50:14;95370.41;;;22.71;51.31
15405;BME280;7801;48.124;11.590;2023-07-22T12:52:39;95372.69;;;22.69;51.15
15405;BME280;7801;48.124;11.590;2023-07-22T12:55:05;95371.50;;;22.66;50.41
15405;BME280;7801;48.124;11.590;2023-07-22T12:57:30;95373.87;;;22.71;45.48
15405;BME280;7801;48.124;11.590;2023-07-22T12:59:56;95370.03;;;22.72;48.87
15405;BME280;7801;48.124;11.590;2023-07-22T13:02:21;95358.84;;;22.74;45.21
15405;BME280;7801;48.124;11.590;2023-07-22T13:04:47;95357.59;;;22.68;46.78
15405;BME280;7801;48.124;11.590;2023-07-22T13:07:13;95360.31;;;22.68;49.78
15405;BME280;7801;48.124;11.590;2023-07-22T13:09:38;95361.47;;;22.67;49.50
15405;BME280;7801;48.124;11.590;2023-07-22T13:12:04;95356.44;;;22.65;48.99
15405;BME280;7801;48.124;11.590;2023-07-22T13:14:29;95355.25;;;22.62;46.90
15405;BME280;7801;48.124;11.590;2023-07-22T13:16:55;95356.81;;;22.67;49.10